sensor_id;sensor_type;location;lat;lon;timestamp;P1;durP1;ratioP1;P2;durP2;ratioP2
43429;SDS011;29028;43.234;27.896;2022-09-17T04:01:46;8.80;;;2.75;;
43429;SDS011;29028;43.234;27.896;2022-09-17T04:02:07;8.75;;;2.60;;
43429;SDS011;29028;43.234;27.896;2022-09-17T04:02:28;7.85;;;2.80;;
43429;SDS011;29028;43.234;27.896;2022-09-17T04:02:49;7.65;;;2.70;;
43429;SDS011;29028;43.234;27.896;2022-09-17T04:03:10;8.25;;;2.90;;
43429;SDS011;29028;43.234;27.896;2022-09-17T04:03:31;5.45;;;2.33;;
43429;SDS011;29028;43.234;27.896;2022-09-17T04:03:52;6.72;;;2.40;;
43429;SDS011;29028;43.234;27.896;2022-09-17T04:04:13;9.48;;;2.58;;
43429;SDS011;29028;43.234;27.896;2022-09-17T04:04:34;10.35;;;2.50;;
43429;SDS011;29028;43.234;27.896;2022-09-17T04:04:56;8.00;;;2.35;;
43429;SDS011;29028;43.234;27.896;2022-09-17T04:05:17;6.38;;;2.10;;
43429;SDS011;29028;43.234;27.896;2022-09-17T04:05:38;7.53;;;2.53;;
43429;SDS011;29028;43.234;27.896;2022-09-17T04:05:58;7.05;;;2.60;;
43429;SDS011;29028;43.234;27.896;2022-09-17T04:06:20;7.07;;;2.70;;
43429;SDS011;29028;43.234;27.896;2022-09-17T04:06:41;8.05;;;2.25;;
43429;SDS011;29028;43.234;27.896;2022-09-17T04:07:02;8.70;;;2.60;;
43429;SDS011;29028;43.234;27.896;2022-09-17T04:07:24;8.25;;;2.50;;
43429;SDS011;29028;43.234;27.896;2022-09-17T04:07:44;5.47;;;2.17;;
43429;SDS011;29028;43.234;27.896;2022-09-17T04:08:05;7.57;;;2.33;;
43429;SDS011;29028;43.234;27.896;2022-09-17T04:08:27;10.18;;;3.05;;
43429;SDS011;29028;43.234;27.896;2022-09-17T04:08:48;9.20;;;2.80;;
43429;SDS011;29028;43.234;27.896;2022-09-17T04:09:09;10.07;;;2.72;;
43429;SDS011;29028;43.234;27.896;2022-09-17T04:09:30;7.18;;;2.50;;
43429;SDS011;29028;43.234;27.896;2022-09-17T04:09:50;8.63;;;3.10;;
43429;SDS011;29028;43.234;27.896;2022-09-17T04:10:12;9.00;;;3.20;;
43429;SDS011;29028;43.234;27.896;2022-09-17T04:10:33;8.55;;;2.65;;
43429;SDS011;29028;43.234;27.896;2022-09-17T04:10:54;7.43;;;2.50;;
43429;SDS011;29028;43.234;27.896;2022-09-17T04:11:15;7.13;;;2.67;;
43429;SDS011;29028;43.234;27.896;2022-09-17T04:11:36;6.38;;;2.53;;
43429;SDS011;29028;43.234;27.896;2022-09-17T04:11:57;8.35;;;2.67;;
43429;SDS011;29028;43.234;27.896;2022-09-17T04:12:18;6.45;;;2.50;;
43429;SDS011;29028;43.234;27.896;2022-09-17T04:12:39;7.20;;;2.75;;
43429;SDS011;29028;43.234;27.896;2022-09-17T04:13:00;7.28;;;2.45;;
43429;SDS011;29028;43.234;27.896;2022-09-17T04:13:22;9.50;;;2.55;;
43429;SDS011;29028;43.234;27.896;2022-09-17T04:13:43;9.68;;;2.45;;
43429;SDS011;29028;43.234;27.896;2022-09-17T04:14:04;8.07;;;2.33;;
43429;SDS011;29028;43.234;27.896;2022-09-17T04:14:25;6.97;;;2.20;;
43429;SDS011;29028;43.234;27.896;2022-09-17T04:14:45;7.38;;;2.47;;
43429;SDS011;29028;43.234;27.896;2022-09-17T04:15:07;6.28;;;2.38;;
43429;SDS011;29028;43.234;27.896;2022-09-17T04:15:29;6.70;;;2.13;;
43429;SDS011;29028;43.234;27.896;2022-09-17T04:15:49;6.45;;;1.98;;
43429;SDS011;29028;43.234;27.896;2022-09-17T04:16:11;7.47;;;2.40;;
43429;SDS011;29028;43.234;27.896;2022-09-17T04:16:32;7.43;;;2.42;;
43429;SDS011;29028;43.234;27.896;2022-09-17T04:16:56;5.13;;;2.22;;
43429;SDS011;29028;43.234;27.896;2022-09-17T04:17:17;6.07;;;2.08;;
43429;SDS011;29028;43.234;27.896;2022-09-17T04:17:38;7.25;;;2.30;;
43429;SDS011;29028;43.234;27.896;2022-09-17T04:17:59;6.65;;;2.20;;
43429;SDS011;29028;43.234;27.896;2022-09-17T04:18:20;6.55;;;1.95;;
43429;SDS011;29028;43.234;27.896;2022-09-17T04:18:42;6.57;;;2.22;;
43429;SDS011;29028;43.234;27.896;2022-09-17T04:19:03;6.33;;;2.13;;
43429;SDS011;29028;43.234;27.896;2022-09-17T04:19:24;6.80;;;1.80;;
43429;SDS011;29028;43.234;27.896;2022-09-17T04:19:44;8.13;;;2.28;;
43429;SDS011;29028;43.234;27.896;2022-09-17T04:20:05;9.18;;;2.55;;
43429;SDS011;29028;43.234;27.896;2022-09-17T04:20:28;10.15;;;2.25;;
43429;SDS011;29028;43.234;27.896;2022-09-17T04:20:48;9.52;;;2.28;;
43429;SDS011;29028;43.234;27.896;2022-09-17T04:21:09;6.28;;;2.30;;
43429;SDS011;29028;43.234;27.896;2022-09-17T04:21:30;6.07;;;2.23;;
43429;SDS011;29028;43.234;27.896;2022-09-17T04:21:52;7.40;;;2.15;;
43429;SDS011;29028;43.234;27.896;2022-09-17T04:22:13;8.77;;;2.13;;
43429;SDS011;29028;43.234;27.896;2022-09-17T04:22:33;6.25;;;1.90;;
43429;SDS011;29028;43.234;27.896;2022-09-17T04:22:55;5.90;;;2.10;;
43429;SDS011;29028;43.234;27.896;2022-09-17T04:23:16;6.07;;;2.00;;
43429;SDS011;29028;43.234;27.896;2022-09-17T04:23:38;7.03;;;1.95;;
43429;SDS011;29028;43.234;27.896;2022-09-17T04:23:58;8.73;;;2.38;;
43429;SDS011;29028;43.234;27.896;2022-09-17T04:24:19;6.37;;;1.93;;
43429;SDS011;29028;43.234;27.896;2022-09-17T04:24:40;4.80;;;1.88;;
43429;SDS011;29028;43.234;27.896;2022-09-17T04:25:01;6.68;;;2.03;;
43429;SDS011;29028;43.234;27.896;2022-09-17T04:25:23;6.60;;;1.98;;
43429;SDS011;29028;43.234;27.896;2022-09-17T04:25:44;8.55;;;2.30;;
43429;SDS011;29028;43.234;27.896;2022-09-17T04:26:04;6.20;;;1.80;;
43429;SDS011;29028;43.234;27.896;2022-09-17T04:26:25;6.22;;;1.88;;
43429;SDS011;29028;43.234;27.896;2022-09-17T04:26:46;6.85;;;2.17;;
43429;SDS011;29028;43.234;27.896;2022-09-17T04:27:08;6.03;;;2.20;;
43429;SDS011;29028;43.234;27.896;2022-09-17T04:27:29;7.03;;;2.05;;
43429;SDS011;29028;43.234;27.896;2022-09-17T04:27:50;8.30;;;2.03;;
43429;SDS011;29028;43.234;27.896;2022-09-17T04:28:11;7.45;;;2.15;;
43429;SDS011;29028;43.234;27.896;2022-09-17T04:28:33;7.10;;;2.13;;
43429;SDS011;29028;43.234;27.896;2022-09-17T04:28:53;6.70;;;1.97;;
43429;SDS011;29028;43.234;27.896;2022-09-17T04:29:14;7.93;;;1.90;;
43429;SDS011;29028;43.234;27.896;2022-09-17T04:29:35;7.50;;;1.90;;
43429;SDS011;29028;43.234;27.896;2022-09-17T04:29:56;5.00;;;1.90;;
43429;SDS011;29028;43.234;27.896;2022-09-17T04:30:18;6.60;;;2.00;;
43429;SDS011;29028;43.234;27.896;2022-09-17T04:30:39;6.93;;;2.20;;
43429;SDS011;29028;43.234;27.896;2022-09-17T04:31:02;7.53;;;1.90;;
43429;SDS011;29028;43.234;27.896;2022-09-17T04:31:22;8.63;;;2.10;;
43429;SDS011;29028;43.234;27.896;2022-09-17T04:31:46;8.52;;;2.30;;
43429;SDS011;29028;43.234;27.896;2022-09-17T04:32:08;9.93;;;2.40;;
43429;SDS011;29028;43.234;27.896;2022-09-17T04:32:29;7.75;;;2.30;;
43429;SDS011;29028;43.234;27.896;2022-09-17T04:32:50;8.43;;;2.00;;
43429;SDS011;29028;43.234;27.896;2022-09-17T04:33:11;5.93;;;1.80;;
43429;SDS011;29028;43.234;27.896;2022-09-17T04:33:33;7.00;;;2.30;;
43429;SDS011;29028;43.234;27.896;2022-09-17T04:33:54;9.13;;;2.58;;
43429;SDS011;29028;43.234;27.896;2022-09-17T04:34:15;8.35;;;2.30;;
43429;SDS011;29028;43.234;27.896;2022-09-17T04:34:35;6.22;;;1.80;;
43429;SDS011;29028;43.234;27.896;2022-09-17T04:34:56;5.25;;;1.70;;
43429;SDS011;29028;43.234;27.896;2022-09-17T04:35:18;7.40;;;2.00;;
43429;SDS011;29028;43.234;27.896;2022-09-17T04:35:39;6.70;;;2.20;;
43429;SDS011;29028;43.234;27.896;2022-09-17T04:36:00;7.15;;;1.95;;
43429;SDS011;29028;43.234;27.896;2022-09-17T04:36:21;5.75;;;1.90;;
43429;SDS011;29028;43.234;27.896;2022-09-17T04:36:43;8.20;;;2.03;;
43429;SDS011;29028;43.234;27.896;2022-09-17T04:37:04;8.77;;;2.00;;
43429;SDS011;29028;43.234;27.896;2022-09-17T04:37:24;8.55;;;2.13;;
43429;SDS011;29028;43.234;27.896;2022-09-17T04:37:50;7.78;;;2.30;;
43429;SDS011;29028;43.234;27.896;2022-09-17T04:38:11;6.88;;;2.00;;
43429;SDS011;29028;43.234;27.896;2022-09-17T04:38:37;5.93;;;1.75;;
43429;SDS011;29028;43.234;27.896;2022-09-17T04:38:58;9.13;;;2.10;;
43429;SDS011;29028;43.234;27.896;2022-09-17T04:39:19;7.07;;;2.25;;
43429;SDS011;29028;43.234;27.896;2022-09-17T04:39:40;7.75;;;2.30;;
43429;SDS011;29028;43.234;27.896;2022-09-17T04:40:02;5.85;;;1.67;;
43429;SDS011;29028;43.234;27.896;2022-09-17T04:40:24;8.55;;;1.90;;
43429;SDS011;29028;43.234;27.896;2022-09-17T04:40:46;6.95;;;1.60;;
43429;SDS011;29028;43.234;27.896;2022-09-17T04:41:07;6.13;;;2.15;;
43429;SDS011;29028;43.234;27.896;2022-09-17T04:41:28;7.25;;;2.28;;
43429;SDS011;29028;43.234;27.896;2022-09-17T04:41:50;6.60;;;2.10;;
43429;SDS011;29028;43.234;27.896;2022-09-17T04:42:11;7.53;;;2.20;;
43429;SDS011;29028;43.234;27.896;2022-09-17T04:42:32;6.17;;;1.70;;
43429;SDS011;29028;43.234;27.896;2022-09-17T04:42:53;7.55;;;1.95;;
43429;SDS011;29028;43.234;27.896;2022-09-17T04:43:15;9.52;;;2.05;;
43429;SDS011;29028;43.234;27.896;2022-09-17T04:43:36;6.95;;;1.90;;
43429;SDS011;29028;43.234;27.896;2022-09-17T04:43:57;6.57;;;2.10;;
43429;SDS011;29028;43.234;27.896;2022-09-17T04:44:18;7.57;;;2.20;;
43429;SDS011;29028;43.234;27.896;2022-09-17T04:44:40;8.05;;;2.47;;
43429;SDS011;29028;43.234;27.896;2022-09-17T04:45:01;9.60;;;2.38;;
43429;SDS011;29028;43.234;27.896;2022-09-17T04:45:21;9.88;;;2.60;;
43429;SDS011;29028;43.234;27.896;2022-09-17T04:45:44;10.52;;;2.25;;
43429;SDS011;29028;43.234;27.896;2022-09-17T04:46:05;7.93;;;2.13;;
43429;SDS011;29028;43.234;27.896;2022-09-17T04:46:27;8.70;;;2.50;;
43429;SDS011;29028;43.234;27.896;2022-09-17T04:46:48;9.70;;;2.67;;
43429;SDS011;29028;43.234;27.896;2022-09-17T04:47:10;7.97;;;2.42;;
43429;SDS011;29028;43.234;27.896;2022-09-17T04:47:31;8.90;;;2.33;;
43429;SDS011;29028;43.234;27.896;2022-09-17T04:47:51;7.22;;;2.30;;
43429;SDS011;29028;43.234;27.896;2022-09-17T04:48:13;8.57;;;2.20;;
43429;SDS011;29028;43.234;27.896;2022-09-17T04:48:34;8.02;;;2.30;;
43429;SDS011;29028;43.234;27.896;2022-09-17T04:48:55;6.65;;;2.50;;
43429;SDS011;29028;43.234;27.896;2022-09-17T04:49:16;8.27;;;2.80;;
43429;SDS011;29028;43.234;27.896;2022-09-17T04:49:38;9.60;;;3.20;;
43429;SDS011;29028;43.234;27.896;2022-09-17T04:49:59;7.20;;;2.88;;
43429;SDS011;29028;43.234;27.896;2022-09-17T04:50:20;10.32;;;3.17;;
43429;SDS011;29028;43.234;27.896;2022-09-17T04:50:41;11.05;;;3.13;;
43429;SDS011;29028;43.234;27.896;2022-09-17T04:51:02;8.43;;;3.03;;
43429;SDS011;29028;43.234;27.896;2022-09-17T04:51:24;6.78;;;2.70;;
43429;SDS011;29028;43.234;27.896;2022-09-17T04:51:45;7.57;;;2.95;;
43429;SDS011;29028;43.234;27.896;2022-09-17T04:52:06;9.82;;;3.35;;
43429;SDS011;29028;43.234;27.896;2022-09-17T04:52:27;10.27;;;3.33;;
43429;SDS011;29028;43.234;27.896;2022-09-17T04:52:48;10.55;;;3.20;;
43429;SDS011;29028;43.234;27.896;2022-09-17T04:53:10;12.43;;;4.18;;
43429;SDS011;29028;43.234;27.896;2022-09-17T04:53:31;11.18;;;4.03;;
43429;SDS011;29028;43.234;27.896;2022-09-17T04:53:52;11.27;;;3.78;;
43429;SDS011;29028;43.234;27.896;2022-09-17T04:54:13;11.27;;;4.28;;
43429;SDS011;29028;43.234;27.896;2022-09-17T04:54:34;14.38;;;5.13;;
43429;SDS011;29028;43.234;27.896;2022-09-17T04:54:56;17.17;;;4.65;;
43429;SDS011;29028;43.234;27.896;2022-09-17T04:55:17;12.30;;;4.93;;
43429;SDS011;29028;43.234;27.896;2022-09-17T04:55:38;11.63;;;5.07;;
43429;SDS011;29028;43.234;27.896;2022-09-17T04:55:59;12.98;;;4.70;;
43429;SDS011;29028;43.234;27.896;2022-09-17T04:56:20;10.18;;;4.28;;
43429;SDS011;29028;43.234;27.896;2022-09-17T04:56:41;11.63;;;4.30;;
43429;SDS011;29028;43.234;27.896;2022-09-17T04:57:02;13.40;;;4.22;;
43429;SDS011;29028;43.234;27.896;2022-09-17T04:57:23;13.00;;;4.57;;
43429;SDS011;29028;43.234;27.896;2022-09-17T04:57:45;10.48;;;4.40;;
43429;SDS011;29028;43.234;27.896;2022-09-17T04:58:09;8.90;;;4.03;;
43429;SDS011;29028;43.234;27.896;2022-09-17T04:58:30;9.98;;;3.90;;
43429;SDS011;29028;43.234;27.896;2022-09-17T04:58:52;12.23;;;4.03;;
43429;SDS011;29028;43.234;27.896;2022-09-17T04:59:12;14.95;;;4.18;;
43429;SDS011;29028;43.234;27.896;2022-09-17T04:59:34;10.43;;;3.60;;
43429;SDS011;29028;43.234;27.896;2022-09-17T04:59:55;10.13;;;3.60;;
43429;SDS011;29028;43.234;27.896;2022-09-17T05:00:17;10.77;;;3.20;;
43429;SDS011;29028;43.234;27.896;2022-09-17T05:00:39;8.93;;;3.35;;
43429;SDS011;29028;43.234;27.896;2022-09-17T05:01:01;9.07;;;3.38;;
43429;SDS011;29028;43.234;27.896;2022-09-17T05:01:22;10.40;;;3.42;;
43429;SDS011;29028;43.234;27.896;2022-09-17T05:01:43;9.48;;;3.42;;
43429;SDS011;29028;43.234;27.896;2022-09-17T05:02:04;9.57;;;3.20;;
43429;SDS011;29028;43.234;27.896;2022-09-17T05:02:27;13.20;;;3.25;;
43429;SDS011;29028;43.234;27.896;2022-09-17T05:02:48;11.33;;;3.00;;
43429;SDS011;29028;43.234;27.896;2022-09-17T05:03:10;11.07;;;3.30;;
43429;SDS011;29028;43.234;27.896;2022-09-17T05:03:31;9.53;;;3.23;;
43429;SDS011;29028;43.234;27.896;2022-09-17T05:03:53;9.13;;;3.03;;
43429;SDS011;29028;43.234;27.896;2022-09-17T05:04:14;7.78;;;3.00;;
43429;SDS011;29028;43.234;27.896;2022-09-17T05:04:35;8.30;;;2.63;;
43429;SDS011;29028;43.234;27.896;2022-09-17T05:04:56;9.27;;;2.70;;
43429;SDS011;29028;43.234;27.896;2022-09-17T05:05:17;9.43;;;2.80;;
43429;SDS011;29028;43.234;27.896;2022-09-17T05:05:40;10.77;;;2.70;;
43429;SDS011;29028;43.234;27.896;2022-09-17T05:06:01;11.52;;;2.55;;
43429;SDS011;29028;43.234;27.896;2022-09-17T05:06:21;8.15;;;2.33;;
43429;SDS011;29028;43.234;27.896;2022-09-17T05:06:42;8.63;;;2.80;;
43429;SDS011;29028;43.234;27.896;2022-09-17T05:07:03;6.28;;;2.40;;
43429;SDS011;29028;43.234;27.896;2022-09-17T05:07:25;9.13;;;2.60;;
43429;SDS011;29028;43.234;27.896;2022-09-17T05:07:46;9.18;;;2.40;;
43429;SDS011;29028;43.234;27.896;2022-09-17T05:08:07;10.40;;;2.20;;
43429;SDS011;29028;43.234;27.896;2022-09-17T05:08:29;10.82;;;2.00;;
43429;SDS011;29028;43.234;27.896;2022-09-17T05:08:49;9.57;;;1.98;;
43429;SDS011;29028;43.234;27.896;2022-09-17T05:09:10;8.40;;;2.00;;
43429;SDS011;29028;43.234;27.896;2022-09-17T05:09:31;8.82;;;2.10;;
43429;SDS011;29028;43.234;27.896;2022-09-17T05:09:52;7.95;;;2.30;;
43429;SDS011;29028;43.234;27.896;2022-09-17T05:10:14;6.65;;;2.15;;
43429;SDS011;29028;43.234;27.896;2022-09-17T05:10:37;6.70;;;1.80;;
43429;SDS011;29028;43.234;27.896;2022-09-17T05:10:58;6.32;;;1.80;;
43429;SDS011;29028;43.234;27.896;2022-09-17T05:11:19;6.43;;;2.10;;
43429;SDS011;29028;43.234;27.896;2022-09-17T05:11:41;6.90;;;2.17;;
43429;SDS011;29028;43.234;27.896;2022-09-17T05:12:02;7.03;;;2.45;;
43429;SDS011;29028;43.234;27.896;2022-09-17T05:12:23;5.28;;;2.13;;
43429;SDS011;29028;43.234;27.896;2022-09-17T05:12:46;8.75;;;1.98;;
43429;SDS011;29028;43.234;27.896;2022-09-17T05:13:08;8.88;;;2.30;;
43429;SDS011;29028;43.234;27.896;2022-09-17T05:13:30;6.65;;;2.38;;
43429;SDS011;29028;43.234;27.896;2022-09-17T05:13:51;5.10;;;1.63;;
43429;SDS011;29028;43.234;27.896;2022-09-17T05:14:11;7.33;;;2.30;;
43429;SDS011;29028;43.234;27.896;2022-09-17T05:14:33;9.32;;;2.13;;
43429;SDS011;29028;43.234;27.896;2022-09-17T05:14:55;5.85;;;1.90;;
43429;SDS011;29028;43.234;27.896;2022-09-17T05:15:16;6.30;;;2.03;;
43429;SDS011;29028;43.234;27.896;2022-09-17T05:15:37;7.57;;;1.98;;
43429;SDS011;29028;43.234;27.896;2022-09-17T05:15:58;6.60;;;1.90;;
43429;SDS011;29028;43.234;27.896;2022-09-17T05:16:20;5.78;;;2.33;;
43429;SDS011;29028;43.234;27.896;2022-09-17T05:16:41;9.07;;;2.77;;
43429;SDS011;29028;43.234;27.896;2022-09-17T05:17:02;10.05;;;2.92;;
43429;SDS011;29028;43.234;27.896;2022-09-17T05:17:23;9.05;;;3.10;;
43429;SDS011;29028;43.234;27.896;2022-09-17T05:17:45;8.55;;;3.28;;
43429;SDS011;29028;43.234;27.896;2022-09-17T05:18:07;9.07;;;2.67;;
43429;SDS011;29028;43.234;27.896;2022-09-17T05:18:28;8.40;;;2.78;;
43429;SDS011;29028;43.234;27.896;2022-09-17T05:18:48;9.27;;;3.10;;
43429;SDS011;29028;43.234;27.896;2022-09-17T05:19:10;10.88;;;3.75;;
43429;SDS011;29028;43.234;27.896;2022-09-17T05:19:32;11.23;;;4.25;;
43429;SDS011;29028;43.234;27.896;2022-09-17T05:19:53;11.33;;;4.30;;
43429;SDS011;29028;43.234;27.896;2022-09-17T05:20:14;12.10;;;4.95;;
43429;SDS011;29028;43.234;27.896;2022-09-17T05:20:36;13.20;;;5.30;;
43429;SDS011;29028;43.234;27.896;2022-09-17T05:20:58;11.63;;;4.37;;
43429;SDS011;29028;43.234;27.896;2022-09-17T05:21:19;11.73;;;4.18;;
43429;SDS011;29028;43.234;27.896;2022-09-17T05:21:40;13.98;;;4.55;;
43429;SDS011;29028;43.234;27.896;2022-09-17T05:22:01;14.38;;;4.68;;
43429;SDS011;29028;43.234;27.896;2022-09-17T05:22:22;12.43;;;4.50;;
43429;SDS011;29028;43.234;27.896;2022-09-17T05:22:44;13.05;;;5.00;;
43429;SDS011;29028;43.234;27.896;2022-09-17T05:23:06;12.65;;;4.90;;
43429;SDS011;29028;43.234;27.896;2022-09-17T05:23:27;13.05;;;4.07;;
43429;SDS011;29028;43.234;27.896;2022-09-17T05:23:48;11.35;;;3.88;;
43429;SDS011;29028;43.234;27.896;2022-09-17T05:24:09;12.25;;;3.67;;
43429;SDS011;29028;43.234;27.896;2022-09-17T05:24:31;11.02;;;3.40;;
43429;SDS011;29028;43.234;27.896;2022-09-17T05:24:52;10.00;;;3.20;;
43429;SDS011;29028;43.234;27.896;2022-09-17T05:25:14;9.05;;;3.30;;
43429;SDS011;29028;43.234;27.896;2022-09-17T05:25:36;13.18;;;3.88;;
43429;SDS011;29028;43.234;27.896;2022-09-17T05:25:58;12.82;;;4.68;;
43429;SDS011;29028;43.234;27.896;2022-09-17T05:26:19;17.92;;;5.25;;
43429;SDS011;29028;43.234;27.896;2022-09-17T05:26:40;16.08;;;4.55;;
43429;SDS011;29028;43.234;27.896;2022-09-17T05:27:00;16.90;;;4.87;;
43429;SDS011;29028;43.234;27.896;2022-09-17T05:27:22;21.92;;;5.10;;
43429;SDS011;29028;43.234;27.896;2022-09-17T05:27:43;13.30;;;4.60;;
43429;SDS011;29028;43.234;27.896;2022-09-17T05:28:05;14.63;;;5.50;;
43429;SDS011;29028;43.234;27.896;2022-09-17T05:28:25;16.15;;;6.10;;
43429;SDS011;29028;43.234;27.896;2022-09-17T05:28:48;19.55;;;6.50;;
43429;SDS011;29028;43.234;27.896;2022-09-17T05:29:09;17.70;;;6.55;;
43429;SDS011;29028;43.234;27.896;2022-09-17T05:29:29;16.58;;;5.78;;
43429;SDS011;29028;43.234;27.896;2022-09-17T05:29:50;13.75;;;5.43;;
43429;SDS011;29028;43.234;27.896;2022-09-17T05:30:11;18.55;;;6.25;;
43429;SDS011;29028;43.234;27.896;2022-09-17T05:30:33;17.75;;;6.68;;
43429;SDS011;29028;43.234;27.896;2022-09-17T05:30:57;20.58;;;7.45;;
43429;SDS011;29028;43.234;27.896;2022-09-17T05:31:18;22.05;;;8.13;;
43429;SDS011;29028;43.234;27.896;2022-09-17T05:31:39;20.98;;;7.90;;
43429;SDS011;29028;43.234;27.896;2022-09-17T05:32:01;16.60;;;6.43;;
43429;SDS011;29028;43.234;27.896;2022-09-17T05:32:22;15.48;;;6.15;;
43429;SDS011;29028;43.234;27.896;2022-09-17T05:32:44;15.57;;;6.78;;
43429;SDS011;29028;43.234;27.896;2022-09-17T05:33:06;18.92;;;7.32;;
43429;SDS011;29028;43.234;27.896;2022-09-17T05:33:28;23.73;;;7.60;;
43429;SDS011;29028;43.234;27.896;2022-09-17T05:33:49;19.15;;;7.03;;
43429;SDS011;29028;43.234;27.896;2022-09-17T05:34:10;20.38;;;7.07;;
43429;SDS011;29028;43.234;27.896;2022-09-17T05:34:31;22.67;;;7.00;;
43429;SDS011;29028;43.234;27.896;2022-09-17T05:34:53;20.15;;;6.43;;
43429;SDS011;29028;43.234;27.896;2022-09-17T05:35:14;17.23;;;6.30;;
43429;SDS011;29028;43.234;27.896;2022-09-17T05:35:35;18.30;;;6.40;;
43429;SDS011;29028;43.234;27.896;2022-09-17T05:35:57;18.95;;;7.30;;
43429;SDS011;29028;43.234;27.896;2022-09-17T05:36:19;20.98;;;7.18;;
43429;SDS011;29028;43.234;27.896;2022-09-17T05:36:39;19.63;;;6.90;;
43429;SDS011;29028;43.234;27.896;2022-09-17T05:37:00;17.92;;;6.65;;
43429;SDS011;29028;43.234;27.896;2022-09-17T05:37:22;20.43;;;7.20;;
43429;SDS011;29028;43.234;27.896;2022-09-17T05:37:43;18.30;;;7.18;;
43429;SDS011;29028;43.234;27.896;2022-09-17T05:38:04;18.73;;;7.00;;
43429;SDS011;29028;43.234;27.896;2022-09-17T05:38:26;19.92;;;6.53;;
43429;SDS011;29028;43.234;27.896;2022-09-17T05:38:47;19.42;;;6.53;;
43429;SDS011;29028;43.234;27.896;2022-09-17T05:39:09;21.80;;;6.97;;
43429;SDS011;29028;43.234;27.896;2022-09-17T05:39:30;19.33;;;6.90;;
43429;SDS011;29028;43.234;27.896;2022-09-17T05:39:52;18.17;;;6.88;;
43429;SDS011;29028;43.234;27.896;2022-09-17T05:40:13;19.27;;;6.90;;
43429;SDS011;29028;43.234;27.896;2022-09-17T05:40:35;18.45;;;6.65;;
43429;SDS011;29028;43.234;27.896;2022-09-17T05:40:57;18.55;;;7.13;;
43429;SDS011;29028;43.234;27.896;2022-09-17T05:41:18;17.33;;;7.35;;
43429;SDS011;29028;43.234;27.896;2022-09-17T05:41:39;18.73;;;7.68;;
43429;SDS011;29028;43.234;27.896;2022-09-17T05:42:01;19.50;;;7.78;;
43429;SDS011;29028;43.234;27.896;2022-09-17T05:42:21;18.77;;;7.30;;
43429;SDS011;29028;43.234;27.896;2022-09-17T05:42:43;19.00;;;7.68;;
43429;SDS011;29028;43.234;27.896;2022-09-17T05:43:04;22.65;;;8.05;;
43429;SDS011;29028;43.234;27.896;2022-09-17T05:43:27;23.27;;;8.98;;
43429;SDS011;29028;43.234;27.896;2022-09-17T05:43:48;22.07;;;8.47;;
43429;SDS011;29028;43.234;27.896;2022-09-17T05:44:08;20.23;;;7.93;;
43429;SDS011;29028;43.234;27.896;2022-09-17T05:44:29;18.75;;;8.27;;
43429;SDS011;29028;43.234;27.896;2022-09-17T05:44:51;19.20;;;7.60;;
43429;SDS011;29028;43.234;27.896;2022-09-17T05:45:12;19.70;;;7.90;;
43429;SDS011;29028;43.234;27.896;2022-09-17T05:45:33;23.98;;;8.70;;
43429;SDS011;29028;43.234;27.896;2022-09-17T05:45:55;24.00;;;8.23;;
43429;SDS011;29028;43.234;27.896;2022-09-17T05:46:20;24.33;;;8.75;;
43429;SDS011;29028;43.234;27.896;2022-09-17T05:46:41;21.70;;;9.05;;
43429;SDS011;29028;43.234;27.896;2022-09-17T05:47:02;23.07;;;8.97;;
43429;SDS011;29028;43.234;27.896;2022-09-17T05:47:23;24.05;;;9.10;;
43429;SDS011;29028;43.234;27.896;2022-09-17T05:47:46;25.10;;;8.65;;
43429;SDS011;29028;43.234;27.896;2022-09-17T05:48:08;20.83;;;8.98;;
43429;SDS011;29028;43.234;27.896;2022-09-17T05:48:32;20.42;;;8.27;;
43429;SDS011;29028;43.234;27.896;2022-09-17T05:48:54;25.13;;;8.68;;
43429;SDS011;29028;43.234;27.896;2022-09-17T05:49:15;24.42;;;9.00;;
43429;SDS011;29028;43.234;27.896;2022-09-17T05:49:36;25.80;;;9.30;;
43429;SDS011;29028;43.234;27.896;2022-09-17T05:49:58;23.88;;;9.10;;
43429;SDS011;29028;43.234;27.896;2022-09-17T05:50:19;18.92;;;8.13;;
43429;SDS011;29028;43.234;27.896;2022-09-17T05:50:40;27.17;;;8.80;;
43429;SDS011;29028;43.234;27.896;2022-09-17T05:51:01;25.83;;;8.55;;
43429;SDS011;29028;43.234;27.896;2022-09-17T05:51:23;23.23;;;8.50;;
43429;SDS011;29028;43.234;27.896;2022-09-17T05:51:44;17.65;;;7.90;;
43429;SDS011;29028;43.234;27.896;2022-09-17T05:52:05;16.98;;;7.57;;
43429;SDS011;29028;43.234;27.896;2022-09-17T05:52:26;25.50;;;7.32;;
43429;SDS011;29028;43.234;27.896;2022-09-17T05:52:48;21.80;;;8.60;;
43429;SDS011;29028;43.234;27.896;2022-09-17T05:53:10;20.40;;;8.52;;
43429;SDS011;29028;43.234;27.896;2022-09-17T05:53:32;20.90;;;8.90;;
43429;SDS011;29028;43.234;27.896;2022-09-17T05:53:53;17.50;;;7.73;;
43429;SDS011;29028;43.234;27.896;2022-09-17T05:54:15;17.10;;;7.00;;
43429;SDS011;29028;43.234;27.896;2022-09-17T05:54:36;15.13;;;6.47;;
43429;SDS011;29028;43.234;27.896;2022-09-17T05:54:56;19.03;;;6.80;;
43429;SDS011;29028;43.234;27.896;2022-09-17T05:55:17;18.88;;;6.65;;
43429;SDS011;29028;43.234;27.896;2022-09-17T05:55:41;17.55;;;5.60;;
43429;SDS011;29028;43.234;27.896;2022-09-17T05:56:02;17.48;;;5.50;;
43429;SDS011;29028;43.234;27.896;2022-09-17T05:56:23;12.90;;;5.60;;
43429;SDS011;29028;43.234;27.896;2022-09-17T05:56:45;15.10;;;5.80;;
43429;SDS011;29028;43.234;27.896;2022-09-17T05:57:05;14.32;;;4.72;;
43429;SDS011;29028;43.234;27.896;2022-09-17T05:57:27;16.98;;;5.13;;
43429;SDS011;29028;43.234;27.896;2022-09-17T05:57:48;13.98;;;5.32;;
43429;SDS011;29028;43.234;27.896;2022-09-17T05:58:11;13.25;;;5.07;;
43429;SDS011;29028;43.234;27.896;2022-09-17T05:58:33;19.75;;;5.82;;
43429;SDS011;29028;43.234;27.896;2022-09-17T05:58:55;14.93;;;5.55;;
43429;SDS011;29028;43.234;27.896;2022-09-17T05:59:16;14.70;;;5.60;;
43429;SDS011;29028;43.234;27.896;2022-09-17T05:59:38;17.63;;;6.32;;
43429;SDS011;29028;43.234;27.896;2022-09-17T05:59:59;16.92;;;6.10;;
43429;SDS011;29028;43.234;27.896;2022-09-17T06:00:19;15.23;;;5.82;;
43429;SDS011;29028;43.234;27.896;2022-09-17T06:00:41;12.43;;;5.28;;
43429;SDS011;29028;43.234;27.896;2022-09-17T06:01:03;13.63;;;5.10;;
43429;SDS011;29028;43.234;27.896;2022-09-17T06:01:24;12.25;;;4.90;;
43429;SDS011;29028;43.234;27.896;2022-09-17T06:01:45;16.00;;;4.93;;
43429;SDS011;29028;43.234;27.896;2022-09-17T06:02:08;16.67;;;5.05;;
43429;SDS011;29028;43.234;27.896;2022-09-17T06:02:32;13.18;;;4.63;;
43429;SDS011;29028;43.234;27.896;2022-09-17T06:02:54;10.98;;;3.72;;
43429;SDS011;29028;43.234;27.896;2022-09-17T06:03:17;12.60;;;4.30;;
43429;SDS011;29028;43.234;27.896;2022-09-17T06:03:39;12.05;;;4.00;;
43429;SDS011;29028;43.234;27.896;2022-09-17T06:04:01;12.05;;;3.88;;
43429;SDS011;29028;43.234;27.896;2022-09-17T06:04:23;12.63;;;3.60;;
43429;SDS011;29028;43.234;27.896;2022-09-17T06:04:44;9.60;;;3.00;;
43429;SDS011;29028;43.234;27.896;2022-09-17T06:05:05;12.57;;;3.58;;
43429;SDS011;29028;43.234;27.896;2022-09-17T06:05:27;10.02;;;3.83;;
43429;SDS011;29028;43.234;27.896;2022-09-17T06:05:52;11.97;;;3.50;;
43429;SDS011;29028;43.234;27.896;2022-09-17T06:06:13;9.80;;;3.30;;
43429;SDS011;29028;43.234;27.896;2022-09-17T06:06:34;10.40;;;2.88;;
43429;SDS011;29028;43.234;27.896;2022-09-17T06:06:57;12.00;;;3.20;;
43429;SDS011;29028;43.234;27.896;2022-09-17T06:07:18;11.52;;;3.50;;
43429;SDS011;29028;43.234;27.896;2022-09-17T06:07:39;12.50;;;4.30;;